sensor_id;sensor_type;location;lat;lon;timestamp;P1;durP1;ratioP1;P2;durP2;ratioP2
20038;SDS011;21737;42.868;25.320;2024-02-23T00:00:04;8.32;;;2.95;;
20038;SDS011;21737;42.868;25.320;2024-02-23T00:02:32;8.65;;;3.65;;
20038;SDS011;21737;42.868;25.320;2024-02-23T00:04:58;6.82;;;3.30;;
20038;SDS011;21737;42.868;25.320;2024-02-23T00:07:24;6.65;;;3.30;;
20038;SDS011;21737;42.868;25.320;2024-02-23T00:09:50;6.45;;;3.17;;
20038;SDS011;21737;42.868;25.320;2024-02-23T00:12:16;6.25;;;3.05;;
20038;SDS011;21737;42.868;25.320;2024-02-23T00:14:43;9.70;;;3.75;;
20038;SDS011;21737;42.868;25.320;2024-02-23T00:17:09;7.10;;;4.47;;
20038;SDS011;21737;42.868;25.320;2024-02-23T00:19:35;5.07;;;2.90;;
20038;SDS011;21737;42.868;25.320;2024-02-23T00:22:00;6.80;;;3.85;;
20038;SDS011;21737;42.868;25.320;2024-02-23T00:24:26;6.15;;;3.05;;
20038;SDS011;21737;42.868;25.320;2024-02-23T00:26:52;8.75;;;3.50;;
20038;SDS011;21737;42.868;25.320;2024-02-23T00:29:18;6.95;;;3.60;;
20038;SDS011;21737;42.868;25.320;2024-02-23T00:31:44;6.68;;;3.30;;
20038;SDS011;21737;42.868;25.320;2024-02-23T00:34:12;6.70;;;2.72;;
20038;SDS011;21737;42.868;25.320;2024-02-23T00:36:40;8.15;;;3.47;;
20038;SDS011;21737;42.868;25.320;2024-02-23T00:39:07;8.35;;;3.85;;
20038;SDS011;21737;42.868;25.320;2024-02-23T00:41:33;6.65;;;3.08;;
20038;SDS011;21737;42.868;25.320;2024-02-23T00:44:04;6.50;;;4.00;;
20038;SDS011;21737;42.868;25.320;2024-02-23T00:46:31;7.60;;;3.05;;
20038;SDS011;21737;42.868;25.320;2024-02-23T00:48:57;7.15;;;3.65;;
20038;SDS011;21737;42.868;25.320;2024-02-23T00:51:22;6.97;;;3.35;;
20038;SDS011;21737;42.868;25.320;2024-02-23T00:53:48;6.68;;;3.10;;
20038;SDS011;21737;42.868;25.320;2024-02-23T00:56:14;4.50;;;2.70;;
20038;SDS011;21737;42.868;25.320;2024-02-23T00:58:40;5.75;;;3.00;;
20038;SDS011;21737;42.868;25.320;2024-02-23T01:01:06;7.50;;;3.88;;
20038;SDS011;21737;42.868;25.320;2024-02-23T01:03:33;6.72;;;3.28;;
20038;SDS011;21737;42.868;25.320;2024-02-23T01:05:59;6.05;;;3.17;;
20038;SDS011;21737;42.868;25.320;2024-02-23T01:08:25;8.30;;;4.35;;
20038;SDS011;21737;42.868;25.320;2024-02-23T01:10:51;6.05;;;3.53;;
20038;SDS011;21737;42.868;25.320;2024-02-23T01:13:17;6.55;;;3.40;;
20038;SDS011;21737;42.868;25.320;2024-02-23T01:15:44;7.63;;;3.65;;
20038;SDS011;21737;42.868;25.320;2024-02-23T01:18:10;6.85;;;3.28;;
20038;SDS011;21737;42.868;25.320;2024-02-23T01:20:36;4.90;;;2.72;;
20038;SDS011;21737;42.868;25.320;2024-02-23T01:23:01;6.88;;;2.90;;
20038;SDS011;21737;42.868;25.320;2024-02-23T01:25:27;6.80;;;3.42;;
20038;SDS011;21737;42.868;25.320;2024-02-23T01:27:53;5.85;;;3.10;;
20038;SDS011;21737;42.868;25.320;2024-02-23T01:30:19;5.60;;;2.92;;
20038;SDS011;21737;42.868;25.320;2024-02-23T01:32:45;7.15;;;3.42;;
20038;SDS011;21737;42.868;25.320;2024-02-23T01:35:11;6.78;;;3.60;;
20038;SDS011;21737;42.868;25.320;2024-02-23T01:37:37;6.68;;;3.30;;
20038;SDS011;21737;42.868;25.320;2024-02-23T01:40:04;6.13;;;3.63;;
20038;SDS011;21737;42.868;25.320;2024-02-23T01:42:31;6.70;;;3.70;;
20038;SDS011;21737;42.868;25.320;2024-02-23T01:44:57;6.28;;;3.33;;
20038;SDS011;21737;42.868;25.320;2024-02-23T01:47:25;7.55;;;3.67;;
20038;SDS011;21737;42.868;25.320;2024-02-23T01:49:55;6.80;;;4.00;;
20038;SDS011;21737;42.868;25.320;2024-02-23T01:52:23;7.18;;;3.20;;
20038;SDS011;21737;42.868;25.320;2024-02-23T01:54:50;6.72;;;3.50;;
20038;SDS011;21737;42.868;25.320;2024-02-23T01:57:16;6.40;;;3.45;;
20038;SDS011;21737;42.868;25.320;2024-02-23T01:59:42;7.18;;;2.67;;
20038;SDS011;21737;42.868;25.320;2024-02-23T02:02:09;5.45;;;2.33;;
20038;SDS011;21737;42.868;25.320;2024-02-23T02:04:35;5.95;;;2.75;;
20038;SDS011;21737;42.868;25.320;2024-02-23T02:07:01;7.05;;;3.47;;
20038;SDS011;21737;42.868;25.320;2024-02-23T02:09:27;6.88;;;3.67;;
20038;SDS011;21737;42.868;25.320;2024-02-23T02:11:53;8.50;;;4.45;;
20038;SDS011;21737;42.868;25.320;2024-02-23T02:14:19;10.00;;;3.85;;
20038;SDS011;21737;42.868;25.320;2024-02-23T02:16:45;8.50;;;3.75;;
20038;SDS011;21737;42.868;25.320;2024-02-23T02:19:12;6.65;;;3.35;;
20038;SDS011;21737;42.868;25.320;2024-02-23T02:21:41;8.07;;;3.95;;
20038;SDS011;21737;42.868;25.320;2024-02-23T02:24:07;8.05;;;3.90;;
20038;SDS011;21737;42.868;25.320;2024-02-23T02:26:34;8.27;;;2.95;;
20038;SDS011;21737;42.868;25.320;2024-02-23T02:29:02;7.28;;;3.60;;
20038;SDS011;21737;42.868;25.320;2024-02-23T02:31:29;6.28;;;3.58;;
20038;SDS011;21737;42.868;25.320;2024-02-23T02:33:55;5.95;;;3.55;;
20038;SDS011;21737;42.868;25.320;2024-02-23T02:36:21;6.28;;;3.13;;
20038;SDS011;21737;42.868;25.320;2024-02-23T02:38:47;8.38;;;3.83;;
20038;SDS011;21737;42.868;25.320;2024-02-23T02:41:13;8.23;;;3.63;;
20038;SDS011;21737;42.868;25.320;2024-02-23T02:43:39;9.85;;;3.72;;
20038;SDS011;21737;42.868;25.320;2024-02-23T02:46:05;6.32;;;3.33;;
20038;SDS011;21737;42.868;25.320;2024-02-23T02:48:30;8.18;;;3.88;;
20038;SDS011;21737;42.868;25.320;2024-02-23T02:50:57;6.15;;;3.25;;
20038;SDS011;21737;42.868;25.320;2024-02-23T02:53:23;7.82;;;4.47;;
20038;SDS011;21737;42.868;25.320;2024-02-23T02:55:49;6.53;;;3.10;;
20038;SDS011;21737;42.868;25.320;2024-02-23T02:58:15;6.45;;;3.13;;
20038;SDS011;21737;42.868;25.320;2024-02-23T03:00:40;7.07;;;3.42;;
20038;SDS011;21737;42.868;25.320;2024-02-23T03:03:06;7.22;;;3.38;;
20038;SDS011;21737;42.868;25.320;2024-02-23T03:05:32;10.90;;;4.57;;
20038;SDS011;21737;42.868;25.320;2024-02-23T03:07:58;6.65;;;3.83;;
20038;SDS011;21737;42.868;25.320;2024-02-23T03:10:24;6.40;;;2.97;;
20038;SDS011;21737;42.868;25.320;2024-02-23T03:12:50;6.75;;;3.38;;
20038;SDS011;21737;42.868;25.320;2024-02-23T03:15:16;6.45;;;3.60;;
20038;SDS011;21737;42.868;25.320;2024-02-23T03:17:41;7.55;;;4.38;;
20038;SDS011;21737;42.868;25.320;2024-02-23T03:20:07;6.57;;;3.40;;
20038;SDS011;21737;42.868;25.320;2024-02-23T03:22:34;7.95;;;3.28;;
20038;SDS011;21737;42.868;25.320;2024-02-23T03:25:01;10.32;;;3.88;;
20038;SDS011;21737;42.868;25.320;2024-02-23T03:27:37;8.52;;;3.83;;
20038;SDS011;21737;42.868;25.320;2024-02-23T03:30:03;6.40;;;3.67;;
20038;SDS011;21737;42.868;25.320;2024-02-23T03:32:30;6.18;;;3.35;;
20038;SDS011;21737;42.868;25.320;2024-02-23T03:35:02;5.78;;;2.83;;
20038;SDS011;21737;42.868;25.320;2024-02-23T03:37:28;7.53;;;3.80;;
20038;SDS011;21737;42.868;25.320;2024-02-23T03:39:54;8.23;;;4.00;;
20038;SDS011;21737;42.868;25.320;2024-02-23T03:42:20;7.70;;;3.47;;
20038;SDS011;21737;42.868;25.320;2024-02-23T03:44:46;6.30;;;3.08;;
20038;SDS011;21737;42.868;25.320;2024-02-23T03:47:12;5.60;;;2.30;;
20038;SDS011;21737;42.868;25.320;2024-02-23T03:49:38;6.45;;;3.28;;
20038;SDS011;21737;42.868;25.320;2024-02-23T03:52:04;5.68;;;2.80;;
20038;SDS011;21737;42.868;25.320;2024-02-23T03:54:30;8.48;;;4.03;;
20038;SDS011;21737;42.868;25.320;2024-02-23T03:56:56;6.15;;;3.35;;
20038;SDS011;21737;42.868;25.320;2024-02-23T03:59:23;9.15;;;4.30;;
20038;SDS011;21737;42.868;25.320;2024-02-23T04:01:50;8.73;;;4.50;;
20038;SDS011;21737;42.868;25.320;2024-02-23T04:04:16;9.35;;;4.88;;
20038;SDS011;21737;42.868;25.320;2024-02-23T04:06:43;11.35;;;5.43;;
20038;SDS011;21737;42.868;25.320;2024-02-23T04:09:08;8.15;;;4.07;;
20038;SDS011;21737;42.868;25.320;2024-02-23T04:11:34;13.07;;;5.50;;
20038;SDS011;21737;42.868;25.320;2024-02-23T04:14:00;8.82;;;4.40;;
20038;SDS011;21737;42.868;25.320;2024-02-23T04:16:27;8.80;;;4.63;;
20038;SDS011;21737;42.868;25.320;2024-02-23T04:18:53;8.43;;;4.55;;
20038;SDS011;21737;42.868;25.320;2024-02-23T04:21:20;9.63;;;4.70;;
20038;SDS011;21737;42.868;25.320;2024-02-23T04:23:46;10.85;;;4.82;;
20038;SDS011;21737;42.868;25.320;2024-02-23T04:26:12;11.05;;;5.70;;
20038;SDS011;21737;42.868;25.320;2024-02-23T04:28:42;13.32;;;6.00;;
20038;SDS011;21737;42.868;25.320;2024-02-23T04:31:08;8.75;;;4.65;;
20038;SDS011;21737;42.868;25.320;2024-02-23T04:33:34;12.65;;;5.68;;
20038;SDS011;21737;42.868;25.320;2024-02-23T04:36:02;11.00;;;5.38;;
20038;SDS011;21737;42.868;25.320;2024-02-23T04:38:28;13.48;;;6.20;;
20038;SDS011;21737;42.868;25.320;2024-02-23T04:40:56;13.18;;;5.90;;
20038;SDS011;21737;42.868;25.320;2024-02-23T04:43:23;13.75;;;6.53;;
20038;SDS011;21737;42.868;25.320;2024-02-23T04:45:50;14.02;;;6.55;;
20038;SDS011;21737;42.868;25.320;2024-02-23T04:48:17;12.20;;;6.30;;
20038;SDS011;21737;42.868;25.320;2024-02-23T04:50:43;13.88;;;6.68;;
20038;SDS011;21737;42.868;25.320;2024-02-23T04:53:09;13.25;;;6.05;;
20038;SDS011;21737;42.868;25.320;2024-02-23T04:55:36;14.95;;;5.95;;
20038;SDS011;21737;42.868;25.320;2024-02-23T04:58:02;15.73;;;6.40;;
20038;SDS011;21737;42.868;25.320;2024-02-23T05:00:28;13.70;;;7.28;;
20038;SDS011;21737;42.868;25.320;2024-02-23T05:03:01;12.85;;;6.22;;
20038;SDS011;21737;42.868;25.320;2024-02-23T05:05:30;13.35;;;6.32;;
20038;SDS011;21737;42.868;25.320;2024-02-23T05:07:56;18.65;;;7.97;;
20038;SDS011;21737;42.868;25.320;2024-02-23T05:10:22;22.42;;;9.30;;
20038;SDS011;21737;42.868;25.320;2024-02-23T05:12:48;17.85;;;7.78;;
20038;SDS011;21737;42.868;25.320;2024-02-23T05:15:14;15.45;;;7.32;;
20038;SDS011;21737;42.868;25.320;2024-02-23T05:17:40;24.83;;;7.63;;
20038;SDS011;21737;42.868;25.320;2024-02-23T05:20:06;16.52;;;6.45;;
20038;SDS011;21737;42.868;25.320;2024-02-23T05:22:37;15.57;;;7.93;;
20038;SDS011;21737;42.868;25.320;2024-02-23T05:25:04;17.83;;;7.07;;
20038;SDS011;21737;42.868;25.320;2024-02-23T05:27:30;17.83;;;7.47;;
20038;SDS011;21737;42.868;25.320;2024-02-23T05:29:56;17.98;;;7.88;;
20038;SDS011;21737;42.868;25.320;2024-02-23T05:32:22;15.68;;;7.05;;
20038;SDS011;21737;42.868;25.320;2024-02-23T05:34:48;15.95;;;7.53;;
20038;SDS011;21737;42.868;25.320;2024-02-23T05:37:17;16.58;;;8.50;;
20038;SDS011;21737;42.868;25.320;2024-02-23T05:39:43;15.18;;;6.40;;
20038;SDS011;21737;42.868;25.320;2024-02-23T05:42:14;11.90;;;5.82;;
20038;SDS011;21737;42.868;25.320;2024-02-23T05:44:44;15.52;;;6.95;;
20038;SDS011;21737;42.868;25.320;2024-02-23T05:47:10;17.52;;;8.05;;
20038;SDS011;21737;42.868;25.320;2024-02-23T05:49:36;19.02;;;8.23;;
20038;SDS011;21737;42.868;25.320;2024-02-23T05:52:02;27.42;;;10.25;;
20038;SDS011;21737;42.868;25.320;2024-02-23T05:54:27;24.00;;;9.23;;
20038;SDS011;21737;42.868;25.320;2024-02-23T05:56:53;22.05;;;9.43;;
20038;SDS011;21737;42.868;25.320;2024-02-23T05:59:19;27.40;;;10.38;;
20038;SDS011;21737;42.868;25.320;2024-02-23T06:01:45;32.63;;;12.93;;
20038;SDS011;21737;42.868;25.320;2024-02-23T06:04:13;27.20;;;10.30;;
20038;SDS011;21737;42.868;25.320;2024-02-23T06:06:42;24.42;;;10.25;;
20038;SDS011;21737;42.868;25.320;2024-02-23T06:09:12;21.13;;;10.40;;
20038;SDS011;21737;42.868;25.320;2024-02-23T06:11:38;18.08;;;8.52;;
20038;SDS011;21737;42.868;25.320;2024-02-23T06:14:04;15.20;;;8.95;;
20038;SDS011;21737;42.868;25.320;2024-02-23T06:16:31;22.23;;;9.30;;
20038;SDS011;21737;42.868;25.320;2024-02-23T06:18:57;23.10;;;9.07;;
20038;SDS011;21737;42.868;25.320;2024-02-23T06:21:23;26.33;;;11.02;;
20038;SDS011;21737;42.868;25.320;2024-02-23T06:23:49;20.45;;;9.68;;
20038;SDS011;21737;42.868;25.320;2024-02-23T06:26:15;21.92;;;8.80;;
20038;SDS011;21737;42.868;25.320;2024-02-23T06:28:41;13.93;;;7.32;;
20038;SDS011;21737;42.868;25.320;2024-02-23T06:31:08;19.42;;;7.55;;
20038;SDS011;21737;42.868;25.320;2024-02-23T06:33:34;18.83;;;7.65;;
20038;SDS011;21737;42.868;25.320;2024-02-23T06:36:00;17.27;;;7.40;;
20038;SDS011;21737;42.868;25.320;2024-02-23T06:38:29;18.92;;;9.10;;
20038;SDS011;21737;42.868;25.320;2024-02-23T06:40:55;32.50;;;11.52;;
20038;SDS011;21737;42.868;25.320;2024-02-23T06:43:21;19.33;;;9.52;;
20038;SDS011;21737;42.868;25.320;2024-02-23T06:45:47;22.15;;;10.18;;
20038;SDS011;21737;42.868;25.320;2024-02-23T06:48:13;21.33;;;9.32;;
20038;SDS011;21737;42.868;25.320;2024-02-23T06:50:39;25.40;;;11.05;;
20038;SDS011;21737;42.868;25.320;2024-02-23T06:53:06;25.95;;;11.50;;
20038;SDS011;21737;42.868;25.320;2024-02-23T06:55:36;29.20;;;10.98;;
20038;SDS011;21737;42.868;25.320;2024-02-23T06:58:02;24.95;;;12.93;;
20038;SDS011;21737;42.868;25.320;2024-02-23T07:00:30;35.40;;;15.18;;
20038;SDS011;21737;42.868;25.320;2024-02-23T07:02:56;40.90;;;18.67;;
20038;SDS011;21737;42.868;25.320;2024-02-23T07:05:24;24.50;;;13.50;;
20038;SDS011;21737;42.868;25.320;2024-02-23T07:07:51;17.80;;;9.35;;
20038;SDS011;21737;42.868;25.320;2024-02-23T07:10:17;19.90;;;10.65;;
20038;SDS011;21737;42.868;25.320;2024-02-23T07:12:43;53.72;;;32.63;;
20038;SDS011;21737;42.868;25.320;2024-02-23T07:15:09;33.67;;;20.85;;
20038;SDS011;21737;42.868;25.320;2024-02-23T07:17:35;24.33;;;12.68;;
20038;SDS011;21737;42.868;25.320;2024-02-23T07:20:02;16.20;;;7.60;;
20038;SDS011;21737;42.868;25.320;2024-02-23T07:22:31;19.38;;;8.70;;
20038;SDS011;21737;42.868;25.320;2024-02-23T07:24:58;16.05;;;6.68;;
20038;SDS011;21737;42.868;25.320;2024-02-23T07:27:23;26.95;;;13.35;;
20038;SDS011;21737;42.868;25.320;2024-02-23T07:29:49;30.95;;;14.20;;
20038;SDS011;21737;42.868;25.320;2024-02-23T07:32:15;22.55;;;9.80;;
20038;SDS011;21737;42.868;25.320;2024-02-23T07:34:48;15.65;;;8.77;;
20038;SDS011;21737;42.868;25.320;2024-02-23T07:37:16;26.27;;;14.43;;
20038;SDS011;21737;42.868;25.320;2024-02-23T07:39:42;8.13;;;4.65;;
20038;SDS011;21737;42.868;25.320;2024-02-23T07:42:07;8.55;;;4.55;;
20038;SDS011;21737;42.868;25.320;2024-02-23T07:44:36;7.55;;;4.03;;
20038;SDS011;21737;42.868;25.320;2024-02-23T07:47:02;9.00;;;5.07;;
20038;SDS011;21737;42.868;25.320;2024-02-23T07:49:28;8.45;;;4.68;;
20038;SDS011;21737;42.868;25.320;2024-02-23T07:51:56;7.63;;;4.18;;
20038;SDS011;21737;42.868;25.320;2024-02-23T07:54:22;7.65;;;4.43;;
20038;SDS011;21737;42.868;25.320;2024-02-23T07:56:51;6.63;;;4.45;;
20038;SDS011;21737;42.868;25.320;2024-02-23T07:59:17;5.40;;;3.50;;
20038;SDS011;21737;42.868;25.320;2024-02-23T08:01:43;6.05;;;4.30;;
20038;SDS011;21737;42.868;25.320;2024-02-23T08:04:09;5.65;;;3.67;;
20038;SDS011;21737;42.868;25.320;2024-02-23T08:06:35;6.78;;;3.70;;
20038;SDS011;21737;42.868;25.320;2024-02-23T08:12:03;9.10;;;4.78;;
20038;SDS011;21737;42.868;25.320;2024-02-23T08:14:29;5.43;;;3.70;;
20038;SDS011;21737;42.868;25.320;2024-02-23T08:16:55;5.38;;;3.30;;
20038;SDS011;21737;42.868;25.320;2024-02-23T08:19:20;5.20;;;3.90;;
20038;SDS011;21737;42.868;25.320;2024-02-23T08:21:47;13.68;;;7.53;;
20038;SDS011;21737;42.868;25.320;2024-02-23T08:24:15;7.78;;;4.05;;
20038;SDS011;21737;42.868;25.320;2024-02-23T08:26:40;7.55;;;5.00;;
20038;SDS011;21737;42.868;25.320;2024-02-23T08:29:08;5.10;;;3.47;;
20038;SDS011;21737;42.868;25.320;2024-02-23T08:31:34;7.32;;;4.90;;
20038;SDS011;21737;42.868;25.320;2024-02-23T08:34:00;7.03;;;4.43;;
20038;SDS011;21737;42.868;25.320;2024-02-23T08:36:26;6.93;;;4.35;;
20038;SDS011;21737;42.868;25.320;2024-02-23T08:38:52;8.52;;;4.63;;
20038;SDS011;21737;42.868;25.320;2024-02-23T08:41:18;5.13;;;3.33;;
20038;SDS011;21737;42.868;25.320;2024-02-23T08:43:44;6.90;;;4.60;;
20038;SDS011;21737;42.868;25.320;2024-02-23T08:46:09;6.28;;;3.65;;
20038;SDS011;21737;42.868;25.320;2024-02-23T08:48:35;8.05;;;4.88;;
20038;SDS011;21737;42.868;25.320;2024-02-23T08:51:01;6.45;;;4.03;;
20038;SDS011;21737;42.868;25.320;2024-02-23T08:53:28;10.20;;;4.63;;
20038;SDS011;21737;42.868;25.320;2024-02-23T08:55:54;5.90;;;3.70;;
20038;SDS011;21737;42.868;25.320;2024-02-23T08:58:21;8.80;;;4.25;;
20038;SDS011;21737;42.868;25.320;2024-02-23T09:00:47;7.68;;;4.40;;
20038;SDS011;21737;42.868;25.320;2024-02-23T09:03:13;6.75;;;4.10;;
20038;SDS011;21737;42.868;25.320;2024-02-23T09:05:39;7.32;;;4.47;;
20038;SDS011;21737;42.868;25.320;2024-02-23T09:08:06;6.50;;;4.05;;
20038;SDS011;21737;42.868;25.320;2024-02-23T09:10:33;6.50;;;4.22;;
20038;SDS011;21737;42.868;25.320;2024-02-23T09:12:59;6.88;;;4.38;;
20038;SDS011;21737;42.868;25.320;2024-02-23T09:15:25;6.18;;;4.10;;
20038;SDS011;21737;42.868;25.320;2024-02-23T09:17:52;6.43;;;3.65;;
20038;SDS011;21737;42.868;25.320;2024-02-23T09:20:19;6.88;;;4.22;;
20038;SDS011;21737;42.868;25.320;2024-02-23T09:22:45;6.47;;;3.88;;
20038;SDS011;21737;42.868;25.320;2024-02-23T09:25:10;7.45;;;4.18;;
20038;SDS011;21737;42.868;25.320;2024-02-23T09:27:36;7.93;;;4.40;;
20038;SDS011;21737;42.868;25.320;2024-02-23T09:30:08;5.30;;;3.47;;
20038;SDS011;21737;42.868;25.320;2024-02-23T09:32:40;4.88;;;3.47;;
20038;SDS011;21737;42.868;25.320;2024-02-23T09:35:06;6.65;;;4.03;;
20038;SDS011;21737;42.868;25.320;2024-02-23T09:37:32;5.13;;;3.45;;
20038;SDS011;21737;42.868;25.320;2024-02-23T09:39:58;7.35;;;3.42;;
20038;SDS011;21737;42.868;25.320;2024-02-23T09:42:24;4.65;;;3.38;;
20038;SDS011;21737;42.868;25.320;2024-02-23T09:44:55;4.65;;;2.95;;
20038;SDS011;21737;42.868;25.320;2024-02-23T09:47:28;4.88;;;3.17;;
20038;SDS011;21737;42.868;25.320;2024-02-23T09:49:54;8.43;;;4.38;;
20038;SDS011;21737;42.868;25.320;2024-02-23T09:52:21;6.93;;;4.07;;
20038;SDS011;21737;42.868;25.320;2024-02-23T09:54:48;6.20;;;3.13;;
20038;SDS011;21737;42.868;25.320;2024-02-23T09:57:15;6.55;;;3.65;;
20038;SDS011;21737;42.868;25.320;2024-02-23T09:59:42;6.93;;;4.22;;
20038;SDS011;21737;42.868;25.320;2024-02-23T10:02:09;7.00;;;3.80;;
20038;SDS011;21737;42.868;25.320;2024-02-23T10:04:39;6.22;;;3.50;;
20038;SDS011;21737;42.868;25.320;2024-02-23T10:07:07;6.28;;;3.85;;
20038;SDS011;21737;42.868;25.320;2024-02-23T10:09:32;6.07;;;3.83;;
20038;SDS011;21737;42.868;25.320;2024-02-23T10:11:58;4.47;;;2.53;;
20038;SDS011;21737;42.868;25.320;2024-02-23T10:14:24;6.07;;;3.38;;
20038;SDS011;21737;42.868;25.320;2024-02-23T10:16:52;5.20;;;2.78;;
20038;SDS011;21737;42.868;25.320;2024-02-23T10:19:20;5.72;;;3.58;;
20038;SDS011;21737;42.868;25.320;2024-02-23T10:21:53;7.57;;;3.85;;
20038;SDS011;21737;42.868;25.320;2024-02-23T10:24:18;7.20;;;3.50;;
20038;SDS011;21737;42.868;25.320;2024-02-23T10:26:44;6.47;;;3.45;;
20038;SDS011;21737;42.868;25.320;2024-02-23T10:29:12;7.75;;;3.63;;
20038;SDS011;21737;42.868;25.320;2024-02-23T10:31:38;6.28;;;3.72;;
20038;SDS011;21737;42.868;25.320;2024-02-23T10:34:08;9.07;;;4.30;;
20038;SDS011;21737;42.868;25.320;2024-02-23T10:36:40;5.65;;;3.30;;
20038;SDS011;21737;42.868;25.320;2024-02-23T10:39:16;6.88;;;3.65;;
20038;SDS011;21737;42.868;25.320;2024-02-23T10:41:51;7.47;;;3.58;;
20038;SDS011;21737;42.868;25.320;2024-02-23T10:44:30;8.60;;;4.40;;
20038;SDS011;21737;42.868;25.320;2024-02-23T10:46:58;6.55;;;3.60;;
20038;SDS011;21737;42.868;25.320;2024-02-23T10:49:24;7.57;;;3.85;;
20038;SDS011;21737;42.868;25.320;2024-02-23T10:51:52;7.00;;;3.33;;
20038;SDS011;21737;42.868;25.320;2024-02-23T10:54:18;7.03;;;3.60;;
20038;SDS011;21737;42.868;25.320;2024-02-23T10:56:46;6.65;;;3.58;;
20038;SDS011;21737;42.868;25.320;2024-02-23T10:59:13;7.07;;;3.70;;
20038;SDS011;21737;42.868;25.320;2024-02-23T11:01:41;8.07;;;3.38;;
20038;SDS011;21737;42.868;25.320;2024-02-23T11:04:07;6.40;;;3.72;;
20038;SDS011;21737;42.868;25.320;2024-02-23T11:06:34;6.25;;;3.55;;
20038;SDS011;21737;42.868;25.320;2024-02-23T11:09:06;5.50;;;3.40;;
20038;SDS011;21737;42.868;25.320;2024-02-23T11:11:38;6.15;;;3.53;;
20038;SDS011;21737;42.868;25.320;2024-02-23T11:14:07;8.13;;;3.47;;
20038;SDS011;21737;42.868;25.320;2024-02-23T11:16:38;8.35;;;3.33;;
20038;SDS011;21737;42.868;25.320;2024-02-23T11:19:13;5.95;;;3.10;;
20038;SDS011;21737;42.868;25.320;2024-02-23T11:21:42;6.32;;;3.28;;
20038;SDS011;21737;42.868;25.320;2024-02-23T11:24:08;7.93;;;4.90;;
20038;SDS011;21737;42.868;25.320;2024-02-23T11:26:41;6.15;;;3.33;;
20038;SDS011;21737;42.868;25.320;2024-02-23T11:29:11;6.15;;;3.15;;
20038;SDS011;21737;42.868;25.320;2024-02-23T11:31:44;6.60;;;3.42;;
20038;SDS011;21737;42.868;25.320;2024-02-23T11:34:11;4.90;;;2.63;;
20038;SDS011;21737;42.868;25.320;2024-02-23T11:36:38;6.18;;;3.55;;
20038;SDS011;21737;42.868;25.320;2024-02-23T11:39:05;6.47;;;3.70;;
20038;SDS011;21737;42.868;25.320;2024-02-23T11:41:31;7.43;;;3.67;;
20038;SDS011;21737;42.868;25.320;2024-02-23T11:44:03;6.13;;;3.63;;
20038;SDS011;21737;42.868;25.320;2024-02-23T11:46:29;7.63;;;4.07;;
20038;SDS011;21737;42.868;25.320;2024-02-23T11:48:55;7.25;;;3.75;;
20038;SDS011;21737;42.868;25.320;2024-02-23T11:51:24;6.78;;;3.65;;
20038;SDS011;21737;42.868;25.320;2024-02-23T11:53:52;6.45;;;3.60;;
20038;SDS011;21737;42.868;25.320;2024-02-23T11:56:18;5.95;;;3.28;;
20038;SDS011;21737;42.868;25.320;2024-02-23T11:58:46;6.88;;;3.70;;
20038;SDS011;21737;42.868;25.320;2024-02-23T12:01:12;6.68;;;3.75;;
20038;SDS011;21737;42.868;25.320;2024-02-23T12:03:38;5.70;;;3.58;;
20038;SDS011;21737;42.868;25.320;2024-02-23T12:06:05;6.45;;;3.78;;
20038;SDS011;21737;42.868;25.320;2024-02-23T12:08:33;5.40;;;3.10;;
20038;SDS011;21737;42.868;25.320;2024-02-23T12:11:05;7.28;;;3.42;;
20038;SDS011;21737;42.868;25.320;2024-02-23T12:13:35;7.53;;;3.60;;
20038;SDS011;21737;42.868;25.320;2024-02-23T12:16:01;5.40;;;3.70;;
20038;SDS011;21737;42.868;25.320;2024-02-23T12:18:29;5.40;;;3.17;;
20038;SDS011;21737;42.868;25.320;2024-02-23T12:26:21;7.00;;;3.67;;
20038;SDS011;21737;42.868;25.320;2024-02-23T12:28:48;9.20;;;3.63;;
20038;SDS011;21737;42.868;25.320;2024-02-23T12:31:14;5.82;;;3.42;;
20038;SDS011;21737;42.868;25.320;2024-02-23T12:33:40;6.18;;;3.72;;
20038;SDS011;21737;42.868;25.320;2024-02-23T12:36:06;5.80;;;3.40;;
20038;SDS011;21737;42.868;25.320;2024-02-23T12:38:36;4.70;;;2.53;;
20038;SDS011;21737;42.868;25.320;2024-02-23T12:41:02;5.97;;;3.00;;
20038;SDS011;21737;42.868;25.320;2024-02-23T12:43:29;6.03;;;2.67;;
20038;SDS011;21737;42.868;25.320;2024-02-23T12:45:55;4.85;;;3.10;;
20038;SDS011;21737;42.868;25.320;2024-02-23T12:48:23;5.38;;;3.38;;
20038;SDS011;21737;42.868;25.320;2024-02-23T12:50:50;5.00;;;2.80;;
20038;SDS011;21737;42.868;25.320;2024-02-23T12:53:33;5.22;;;2.92;;
20038;SDS011;21737;42.868;25.320;2024-02-23T12:56:03;5.30;;;2.47;;
20038;SDS011;21737;42.868;25.320;2024-02-23T12:58:31;3.80;;;2.03;;
20038;SDS011;21737;42.868;25.320;2024-02-23T13:00:58;4.85;;;2.67;;
20038;SDS011;21737;42.868;25.320;2024-02-23T13:03:25;5.68;;;2.53;;
20038;SDS011;21737;42.868;25.320;2024-02-23T13:05:53;5.10;;;2.65;;
20038;SDS011;21737;42.868;25.320;2024-02-23T13:08:20;4.40;;;2.50;;
20038;SDS011;21737;42.868;25.320;2024-02-23T13:10:48;5.45;;;2.85;;
20038;SDS011;21737;42.868;25.320;2024-02-23T13:13:15;4.50;;;2.30;;
20038;SDS011;21737;42.868;25.320;2024-02-23T13:15:43;5.95;;;2.97;;
20038;SDS011;21737;42.868;25.320;2024-02-23T13:18:09;5.68;;;2.53;;
20038;SDS011;21737;42.868;25.320;2024-02-23T13:20:36;3.75;;;2.25;;
20038;SDS011;21737;42.868;25.320;2024-02-23T13:23:03;6.30;;;2.83;;
20038;SDS011;21737;42.868;25.320;2024-02-23T13:25:28;3.88;;;1.67;;
20038;SDS011;21737;42.868;25.320;2024-02-23T13:27:54;4.22;;;2.40;;
20038;SDS011;21737;42.868;25.320;2024-02-23T13:30:20;3.28;;;1.73;;
20038;SDS011;21737;42.868;25.320;2024-02-23T13:32:47;4.80;;;2.00;;
20038;SDS011;21737;42.868;25.320;2024-02-23T13:35:13;3.20;;;1.67;;
20038;SDS011;21737;42.868;25.320;2024-02-23T13:37:40;4.07;;;2.17;;
20038;SDS011;21737;42.868;25.320;2024-02-23T13:40:07;3.90;;;1.60;;
20038;SDS011;21737;42.868;25.320;2024-02-23T13:42:34;2.72;;;1.40;;
20038;SDS011;21737;42.868;25.320;2024-02-23T13:45:00;2.92;;;1.48;;
20038;SDS011;21737;42.868;25.320;2024-02-23T13:47:27;4.13;;;1.73;;
20038;SDS011;21737;42.868;25.320;2024-02-23T13:49:53;2.55;;;1.17;;
20038;SDS011;21737;42.868;25.320;2024-02-23T13:52:19;4.22;;;1.60;;
20038;SDS011;21737;42.868;25.320;2024-02-23T13:57:31;5.88;;;1.70;;
20038;SDS011;21737;42.868;25.320;2024-02-23T13:59:58;3.13;;;1.63;;
20038;SDS011;21737;42.868;25.320;2024-02-23T14:02:24;4.05;;;1.35;;
20038;SDS011;21737;42.868;25.320;2024-02-23T14:07:28;2.13;;;1.23;;
20038;SDS011;21737;42.868;25.320;2024-02-23T14:09:53;2.60;;;1.20;;
20038;SDS011;21737;42.868;25.320;2024-02-23T14:12:19;3.00;;;1.23;;
20038;SDS011;21737;42.868;25.320;2024-02-23T14:14:51;2.63;;;1.40;;
20038;SDS011;21737;42.868;25.320;2024-02-23T14:17:19;3.75;;;1.60;;
20038;SDS011;21737;42.868;25.320;2024-02-23T14:19:45;3.03;;;1.60;;
20038;SDS011;21737;42.868;25.320;2024-02-23T14:22:11;2.85;;;1.40;;
20038;SDS011;21737;42.868;25.320;2024-02-23T14:27:24;3.55;;;1.42;;
20038;SDS011;21737;42.868;25.320;2024-02-23T14:29:50;2.47;;;1.40;;
20038;SDS011;21737;42.868;25.320;2024-02-23T14:32:19;2.65;;;1.10;;
20038;SDS011;21737;42.868;25.320;2024-02-23T14:34:45;2.20;;;1.10;;
20038;SDS011;21737;42.868;25.320;2024-02-23T14:37:15;2.88;;;1.52;;
20038;SDS011;21737;42.868;25.320;2024-02-23T14:39:44;3.40;;;1.52;;
20038;SDS011;21737;42.868;25.320;2024-02-23T14:42:10;3.13;;;1.23;;
20038;SDS011;21737;42.868;25.320;2024-02-23T14:44:36;3.80;;;1.40;;